PHBK

Details ICAO PHBK (BKH)
Name BARKING SANDS PMRF
Region USA (Hawaii)
Timezone Pacific/Honolulu (UTC-10.0)
Plans Departing 13
Arriving 16
Stats Elevation 23 ft / 7 m (AMSL)
Location 22.022773° -159.785060°
Runways 1
Magnetic Variation 9.420° E
Sunrise 2018-05-26 15:57:41 UTC / 2018-05-26 05:57:41 Local
Sunset 2018-05-27 05:17:40 UTC / 2018-05-26 19:17:40 Local
Advertisement - Login to hide

Runways

ID Width Length Bearing (true) Bearing (mag) Surface Threshold Offset Overrun Length
16 151 ft / 46 m 6,006 ft / 1,831 m 170.05° 160.63° Asphalt 0 ft / 0 m 98 ft / 30 m
34 151 ft / 46 m 6,006 ft / 1,831 m 350.05° 340.63° Asphalt 0 ft / 0 m 98 ft / 30 m

Map

Weather


0- 5 10 15 20 25 30 35+ Temperature / ° C

Clouds and Precipitation
Forecast for 2018-05-26 12:00 UTC. Updated 3 hours ago

Ground ~20,000 ft ~40,000 ft Winds

METAR

PHBK 261356Z AUTO 08003KT 10SM SCT047 BKN060 21/19 A3006 RMK AO2 SLP181 T02060194

TAF

Not found

Frequencies

Unicom 122.80 MHz UNICOM
Tower 126.20 MHz TWR
Warning: Do not use this data for real-world aviation or navigation. No guarantee of current accuracy is given.